Weather reports worldwide

Advertisment
Cluanie Inn No 3, United Kingdom (99117): temperature & dewpoint: 10.07.2018 23:00:00 - 16.07.2018 23:00:00 (BST)Cluanie Inn No 3, United Kingdom (99117): precipitation: 10.07.2018 23:00:00 - 16.07.2018 23:00:00 (BST)
Date & Time tt [°C] td [°C] rr [mm]
16.07.2018 23:00:00 - - -
16.07.2018 22:00:00 - - -
16.07.2018 21:00:00 13,1 9,6 0,0
16.07.2018 20:00:00 14,4 8,8 0,0
16.07.2018 19:00:00 14,3 9,1 0,0
16.07.2018 18:00:00 14,8 9,6 0,0
16.07.2018 17:00:00 15,3 9,2 0,0
16.07.2018 16:00:00 15,5 8,6 0,0
16.07.2018 15:00:00 17,3 9,0 0,0
16.07.2018 14:00:00 16,2 8,4 0,0
16.07.2018 13:00:00 15,5 7,7 0,0
16.07.2018 12:00:00 15,8 9,6 0,0
16.07.2018 11:00:00 14,4 12,3 0,0
16.07.2018 10:00:00 13,9 10,1 0,0
16.07.2018 09:00:00 15,5 9,3 0,0
16.07.2018 08:00:00 13,2 9,0 0,0
16.07.2018 07:00:00 12,6 10,6 0,0
16.07.2018 06:00:00 12,5 10,5 0,0
16.07.2018 05:00:00 12,5 10,6 0,0
16.07.2018 04:00:00 12,2 11,4 0,4
16.07.2018 03:00:00 12,1 11,5 0,2
16.07.2018 02:00:00 13,2 11,9 0,0
16.07.2018 01:00:00 14,5 13,0 0,6
16.07.2018 00:00:00 15,7 13,8 0,0
15.07.2018 23:00:00 17,1 14,5 0,0
15.07.2018 22:00:00 16,5 15,0 0,2
15.07.2018 21:00:00 16,8 14,9 0,0
15.07.2018 20:00:00 17,0 15,1 0,6
15.07.2018 19:00:00 17,8 14,4 0,0
15.07.2018 18:00:00 17,8 15,6 0,0
15.07.2018 17:00:00 18,1 15,9 0,0
15.07.2018 16:00:00 17,4 15,6 0,0
15.07.2018 15:00:00 17,7 15,0 0,0
15.07.2018 14:00:00 18,1 15,3 0,0
15.07.2018 13:00:00 18,4 15,4 0,0
15.07.2018 12:00:00 17,9 15,0 0,0
15.07.2018 11:00:00 17,8 14,7 0,0
15.07.2018 10:00:00 17,0 15,3 1,0
15.07.2018 09:00:00 16,5 15,2 0,8
15.07.2018 08:00:00 16,8 15,8 0,2
15.07.2018 07:00:00 16,3 15,2 0,2
15.07.2018 06:00:00 16,1 15,0 0,0
15.07.2018 05:00:00 16,2 14,8 0,0
15.07.2018 04:00:00 16,2 14,9 0,0
15.07.2018 03:00:00 16,2 14,9 0,2
15.07.2018 02:00:00 16,6 14,3 0,0
15.07.2018 01:00:00 17,0 14,4 0,0
15.07.2018 00:00:00 16,6 14,7 0,0
14.07.2018 23:00:00 16,0 14,8 0,2
14.07.2018 22:00:00 16,2 14,5 0,0
14.07.2018 21:00:00 16,9 13,9 0,0
14.07.2018 20:00:00 16,2 14,1 0,0
14.07.2018 19:00:00 16,1 14,3 0,0
14.07.2018 18:00:00 16,8 13,6 0,0
14.07.2018 17:00:00 17,2 13,8 0,0
14.07.2018 16:00:00 17,5 12,8 0,0
14.07.2018 15:00:00 17,4 12,0 0,0
14.07.2018 14:00:00 17,7 11,7 0,0
14.07.2018 13:00:00 18,1 11,4 0,0
14.07.2018 12:00:00 17,9 11,0 0,0
14.07.2018 11:00:00 17,6 10,8 0,0
14.07.2018 10:00:00 17,2 10,9 0,0
14.07.2018 09:00:00 16,7 10,8 0,0
14.07.2018 08:00:00 15,7 10,2 0,0
14.07.2018 07:00:00 15,2 10,0 0,0
14.07.2018 06:00:00 14,6 9,9 0,0
14.07.2018 05:00:00 14,8 9,6 0,0
14.07.2018 04:00:00 14,0 10,2 0,0
14.07.2018 03:00:00 12,5 10,0 0,0
14.07.2018 02:00:00 10,8 9,3 0,0
14.07.2018 01:00:00 10,6 8,9 0,0
14.07.2018 00:00:00 12,1 9,9 0,0
13.07.2018 23:00:00 12,4 9,9 0,0
13.07.2018 22:00:00 13,9 10,3 0,0
13.07.2018 21:00:00 15,9 10,1 0,0
13.07.2018 20:00:00 16,8 10,2 0,0
13.07.2018 19:00:00 17,3 9,7 0,0
13.07.2018 18:00:00 19,2 9,7 0,0
13.07.2018 17:00:00 18,4 10,0 0,0
13.07.2018 16:00:00 18,4 11,1 0,0
13.07.2018 15:00:00 20,0 12,7 0,0
13.07.2018 14:00:00 17,0 11,5 0,0
13.07.2018 13:00:00 17,4 10,9 0,0
13.07.2018 12:00:00 16,2 10,3 0,0
13.07.2018 11:00:00 16,2 9,7 0,0
13.07.2018 10:00:00 15,6 12,1 0,0
13.07.2018 09:00:00 14,4 11,6 0,0
13.07.2018 08:00:00 13,8 12,0 0,0
13.07.2018 07:00:00 13,1 11,8 0,0
13.07.2018 06:00:00 12,2 11,3 0,0
13.07.2018 05:00:00 12,3 11,5 0,0
13.07.2018 04:00:00 12,3 11,2 0,0
13.07.2018 03:00:00 12,4 10,9 0,0
13.07.2018 02:00:00 13,1 11,3 0,0
13.07.2018 01:00:00 13,0 11,0 0,0
13.07.2018 00:00:00 13,1 10,9 0,0
12.07.2018 23:00:00 13,4 10,5 0,0
12.07.2018 22:00:00 13,9 10,4 0,0
12.07.2018 21:00:00 15,2 10,8 0,0
12.07.2018 20:00:00 17,4 12,1 0,0
12.07.2018 19:00:00 16,9 12,8 0,0
12.07.2018 18:00:00 16,7 12,5 0,0
12.07.2018 17:00:00 18,4 13,2 0,0
12.07.2018 16:00:00 19,2 12,8 0,0
12.07.2018 15:00:00 17,1 12,2 0,0
12.07.2018 14:00:00 17,0 12,9 0,0
12.07.2018 13:00:00 16,7 12,0 0,0
12.07.2018 12:00:00 15,6 11,7 0,0
12.07.2018 11:00:00 15,3 12,3 0,0
12.07.2018 10:00:00 14,1 11,9 0,0
12.07.2018 09:00:00 13,7 11,4 0,0
12.07.2018 08:00:00 13,3 11,4 0,0
12.07.2018 07:00:00 12,7 11,2 0,0
12.07.2018 06:00:00 12,4 10,9 0,0
12.07.2018 05:00:00 12,5 11,0 0,0
12.07.2018 04:00:00 12,4 11,3 0,0
12.07.2018 03:00:00 12,7 11,5 0,0
12.07.2018 02:00:00 12,8 11,6 0,0
12.07.2018 01:00:00 13,1 11,9 0,0
12.07.2018 00:00:00 13,3 12,2 0,0
11.07.2018 23:00:00 13,3 12,4 0,0
11.07.2018 22:00:00 13,6 12,7 0,0
11.07.2018 21:00:00 14,1 13,3 0,0
11.07.2018 20:00:00 14,2 13,5 0,8
11.07.2018 19:00:00 14,0 13,5 1,4
11.07.2018 18:00:00 14,8 13,8 0,2
11.07.2018 17:00:00 14,9 13,6 0,0
11.07.2018 16:00:00 15,1 13,5 0,2
11.07.2018 15:00:00 15,9 13,2 0,0
11.07.2018 14:00:00 16,1 13,6 0,0
11.07.2018 13:00:00 14,8 13,3 0,0
11.07.2018 12:00:00 14,5 13,4 0,0
11.07.2018 11:00:00 14,1 12,8 0,0
11.07.2018 10:00:00 13,9 12,9 0,0
11.07.2018 09:00:00 12,9 12,6 0,6
11.07.2018 08:00:00 12,6 12,5 2,2
11.07.2018 07:00:00 12,5 12,3 1,8
11.07.2018 06:00:00 12,5 12,4 3,6
11.07.2018 05:00:00 12,6 12,6 0,8
11.07.2018 04:00:00 12,7 12,7 0,6
11.07.2018 03:00:00 12,8 12,8 1,4
11.07.2018 02:00:00 12,8 12,8 3,6
11.07.2018 01:00:00 13,0 13,0 1,0
11.07.2018 00:00:00 13,1 13,0 1,2
10.07.2018 23:00:00 13,4 13,1 0,8

tt = temperature
td = dewpoint
rr = precipitation

Next stations